Time;durP1;ratioP1;P1;durP2;ratioP2;P2;SDS_P1;SDS_P2;PMS_P1;PMS_P2;Temp;Humidity;BMP_temperature;BMP_pressure;BME280_temperature;BME280_humidity;BME280_pressure;Samples;Min_cycle;Max_cycle;Signal;HPM_P1;HPM_P2
2022/06/10 00:00:05;;;;;;;14.15;8.32;;;;;;;;;;5048100;28;20271;-71
2022/06/10 00:02:30;;;;;;;14.15;7.45;;;;;;;;;;5045262;28;20029;-69
2022/06/10 00:04:56;;;;;;;14.07;7.60;;;;;;;;;;5047839;28;20051;-70
2022/06/10 00:07:21;;;;;;;11.83;7.33;;;;;;;;;;5029929;28;20307;-69
2022/06/10 00:09:46;;;;;;;13.48;7.45;;;;;;;;;;5051161;28;20278;-69
2022/06/10 00:12:11;;;;;;;11.10;7.87;;;;;;;;;;5049977;28;20462;-71
2022/06/10 00:14:36;;;;;;;12.65;8.07;;;;;;;;;;5051029;28;20352;-69
2022/06/10 00:17:02;;;;;;;13.65;8.57;;;;;;;;;;5050813;28;20017;-70
2022/06/10 00:19:27;;;;;;;17.90;8.55;;;;;;;;;;5050400;28;20066;-71
2022/06/10 00:21:52;;;;;;;19.58;7.32;;;;;;;;;;5051516;28;20021;-71
2022/06/10 00:24:17;;;;;;;25.27;7.32;;;;;;;;;;5050255;28;20036;-71
2022/06/10 00:26:43;;;;;;;11.23;6.90;;;;;;;;;;5047292;28;20021;-71
2022/06/10 00:29:08;;;;;;;20.37;7.00;;;;;;;;;;5051412;28;20390;-71
2022/06/10 00:31:33;;;;;;;10.27;6.27;;;;;;;;;;5046235;28;20275;-71
2022/06/10 00:33:58;;;;;;;11.83;6.63;;;;;;;;;;5048872;28;20298;-71
2022/06/10 00:36:23;;;;;;;11.25;7.15;;;;;;;;;;5048500;28;20297;-71
2022/06/10 00:38:49;;;;;;;12.47;6.90;;;;;;;;;;5049630;28;20032;-70
2022/06/10 00:41:15;;;;;;;7.82;6.30;;;;;;;;;;5042456;28;20840;-71
2022/06/10 00:43:40;;;;;;;11.38;6.93;;;;;;;;;;5049061;28;20017;-71
2022/06/10 00:48:44;;;;;;;14.45;7.32;;;;;;;;;;5069310;28;20381;-65
2022/06/10 00:51:14;;;;;;;15.88;7.70;;;;;;;;;;5067705;28;20383;-65
2022/06/10 00:53:39;;;;;;;15.05;7.35;;;;;;;;;;5071300;28;20017;-66
2022/06/10 00:56:07;;;;;;;10.90;7.38;;;;;;;;;;5069157;28;20431;-66
2022/06/10 00:58:45;;;;;;;13.23;7.30;;;;;;;;;;5070208;28;20583;-66
2022/06/10 01:01:11;;;;;;;13.27;6.90;;;;;;;;;;5070765;28;20455;-66
2022/06/10 01:03:37;;;;;;;12.93;7.10;;;;;;;;;;5071368;28;20025;-66
2022/06/10 01:06:02;;;;;;;13.68;7.05;;;;;;;;;;5068640;28;20432;-66
2022/06/10 01:08:27;;;;;;;16.65;7.85;;;;;;;;;;5070857;28;20037;-65
2022/06/10 01:10:52;;;;;;;11.63;7.78;;;;;;;;;;5065688;28;20052;-66
2022/06/10 01:13:37;;;;;;;10.90;7.50;;;;;;;;;;5071020;28;20013;-66
2022/06/10 01:16:09;;;;;;;15.25;8.10;;;;;;;;;;5064825;28;20020;-65
2022/06/10 01:18:53;;;;;;;14.98;7.05;;;;;;;;;;5069754;28;20026;-65
2022/06/10 01:21:27;;;;;;;12.82;7.80;;;;;;;;;;5068625;28;20437;-65
2022/06/10 01:23:52;;;;;;;14.27;7.78;;;;;;;;;;5064554;28;20021;-65
2022/06/10 01:27:47;;;;;;;14.82;6.38;;;;;;;;;;5066629;28;20020;-65
2022/06/10 01:29:39;;;;;;;10.70;7.32;;;;;;;;;;5068716;28;20033;-65
2022/06/10 01:32:07;;;;;;;13.48;7.22;;;;;;;;;;5067170;28;20107;-67
2022/06/10 01:34:46;;;;;;;10.07;6.63;;;;;;;;;;5067004;28;20043;-66
2022/06/10 01:37:14;;;;;;;14.27;6.78;;;;;;;;;;5069492;28;20203;-66
2022/06/10 01:40:00;;;;;;;11.20;6.50;;;;;;;;;;5069233;28;20039;-65
2022/06/10 01:42:25;;;;;;;10.65;6.85;;;;;;;;;;5067436;28;20016;-66
2022/06/10 01:44:56;;;;;;;14.33;6.47;;;;;;;;;;5065333;28;20224;-65
2022/06/10 01:47:24;;;;;;;12.02;6.88;;;;;;;;;;5068802;28;20271;-65
2022/06/10 01:49:56;;;;;;;12.27;7.85;;;;;;;;;;5067335;28;20024;-66
2022/06/10 01:52:23;;;;;;;11.55;6.30;;;;;;;;;;5070488;28;20488;-65
2022/06/10 01:54:52;;;;;;;17.08;7.28;;;;;;;;;;5066446;28;20739;-65
2022/06/10 01:57:26;;;;;;;16.05;8.68;;;;;;;;;;5070120;28;20051;-65
2022/06/10 01:59:56;;;;;;;14.65;7.07;;;;;;;;;;5067863;28;20024;-66
2022/06/10 02:02:25;;;;;;;20.63;7.00;;;;;;;;;;5066348;28;20013;-65
2022/06/10 02:04:57;;;;;;;14.48;7.68;;;;;;;;;;5067280;28;20044;-66
2022/06/10 02:07:34;;;;;;;17.70;6.50;;;;;;;;;;5062633;28;20100;-65
2022/06/10 02:10:03;;;;;;;17.83;7.28;;;;;;;;;;5063028;28;20013;-66
2022/06/10 02:12:31;;;;;;;12.57;7.38;;;;;;;;;;5069148;28;20021;-66
2022/06/10 02:15:01;;;;;;;12.52;6.35;;;;;;;;;;5065992;28;20460;-66
2022/06/10 02:17:29;;;;;;;11.90;7.13;;;;;;;;;;5069164;28;20385;-65
2022/06/10 02:19:56;;;;;;;10.88;6.68;;;;;;;;;;5068604;28;20095;-65
2022/06/10 02:22:34;;;;;;;11.23;6.95;;;;;;;;;;5069384;28;20475;-65
2022/06/10 02:25:01;;;;;;;13.70;7.30;;;;;;;;;;5064026;28;20550;-65
2022/06/10 02:27:33;;;;;;;11.05;6.00;;;;;;;;;;5062515;28;20012;-66
2022/06/10 02:30:01;;;;;;;11.15;6.40;;;;;;;;;;5065790;28;20020;-65
2022/06/10 02:32:26;;;;;;;14.60;6.25;;;;;;;;;;5067366;28;20012;-65
2022/06/10 02:34:52;;;;;;;14.90;6.72;;;;;;;;;;5069587;28;20047;-65
2022/06/10 02:37:21;;;;;;;12.73;6.55;;;;;;;;;;5066273;28;20020;-65
2022/06/10 02:40:10;;;;;;;13.45;6.90;;;;;;;;;;5064831;28;20031;-65
2022/06/10 02:42:47;;;;;;;11.38;6.72;;;;;;;;;;5060153;28;20037;-65
2022/06/10 02:45:25;;;;;;;14.00;6.93;;;;;;;;;;5065667;28;20016;-66
2022/06/10 02:48:13;;;;;;;22.83;6.38;;;;;;;;;;5066036;28;20023;-65
2022/06/10 02:50:39;;;;;;;12.55;6.05;;;;;;;;;;5059474;28;20032;-66
2022/06/10 02:53:04;;;;;;;9.57;5.60;;;;;;;;;;5067106;28;20027;-65
2022/06/10 02:55:31;;;;;;;18.00;6.93;;;;;;;;;;5065767;28;20012;-66
2022/06/10 03:01:12;;;;;;;11.40;5.72;;;;;;;;;;5065143;28;20495;-65
2022/06/10 03:03:43;;;;;;;11.15;6.38;;;;;;;;;;5066562;28;20025;-66
2022/06/10 03:06:25;;;;;;;20.77;6.90;;;;;;;;;;5068632;28;20040;-65
2022/06/10 03:09:11;;;;;;;9.85;6.30;;;;;;;;;;5051013;28;20032;-65
2022/06/10 03:11:44;;;;;;;15.48;6.55;;;;;;;;;;5052793;28;20048;-66
2022/06/10 03:14:21;;;;;;;17.35;6.47;;;;;;;;;;5066635;28;20020;-65
2022/06/10 03:16:52;;;;;;;10.30;6.57;;;;;;;;;;5065568;28;20020;-65
2022/06/10 03:19:37;;;;;;;14.85;6.60;;;;;;;;;;5066526;28;20465;-65
2022/06/10 03:22:07;;;;;;;15.63;6.25;;;;;;;;;;5065852;28;20491;-66
2022/06/10 03:24:32;;;;;;;10.23;5.88;;;;;;;;;;5064754;28;20020;-65
2022/06/10 03:27:01;;;;;;;8.73;5.55;;;;;;;;;;5061642;28;20435;-66
2022/06/10 03:29:27;;;;;;;9.10;6.10;;;;;;;;;;5063392;28;20020;-68
2022/06/10 03:32:00;;;;;;;17.00;6.55;;;;;;;;;;5067602;28;20089;-67
2022/06/10 03:34:41;;;;;;;8.55;5.13;;;;;;;;;;5064274;28;20477;-67
2022/06/10 03:37:07;;;;;;;13.45;5.55;;;;;;;;;;5067146;28;20487;-68
2022/06/10 03:39:33;;;;;;;12.10;5.68;;;;;;;;;;5066922;28;20055;-65
2022/06/10 03:42:08;;;;;;;12.82;6.15;;;;;;;;;;5067796;28;20056;-65
2022/06/10 03:44:33;;;;;;;11.32;5.95;;;;;;;;;;5072333;28;20103;-65
2022/06/10 03:46:59;;;;;;;14.10;6.03;;;;;;;;;;5070654;28;20106;-65
2022/06/10 03:49:29;;;;;;;13.20;6.05;;;;;;;;;;5070242;28;20033;-65
2022/06/10 03:51:54;;;;;;;14.45;6.22;;;;;;;;;;5072198;28;20048;-65
2022/06/10 03:54:20;;;;;;;15.02;5.78;;;;;;;;;;5067658;28;20752;-65
2022/06/10 03:56:46;;;;;;;15.52;5.72;;;;;;;;;;5071106;28;20107;-65
2022/06/10 03:59:11;;;;;;;9.13;6.20;;;;;;;;;;5067397;28;20024;-65
2022/06/10 04:01:36;;;;;;;14.98;6.53;;;;;;;;;;5072799;28;20104;-65
2022/06/10 04:04:02;;;;;;;8.82;5.60;;;;;;;;;;5070040;28;20432;-65
2022/06/10 04:06:27;;;;;;;11.38;5.13;;;;;;;;;;5071420;28;20103;-67
2022/06/10 04:08:52;;;;;;;21.23;6.15;;;;;;;;;;5069202;28;20030;-65
2022/06/10 04:11:17;;;;;;;12.55;6.15;;;;;;;;;;5071490;28;20027;-65
2022/06/10 04:13:44;;;;;;;14.35;7.57;;;;;;;;;;5069862;28;20016;-66
2022/06/10 04:16:09;;;;;;;18.15;7.90;;;;;;;;;;5072310;28;20380;-65
2022/06/10 04:18:35;;;;;;;20.58;6.20;;;;;;;;;;5070447;28;20024;-65
2022/06/10 04:21:00;;;;;;;16.08;7.78;;;;;;;;;;5070112;28;20089;-65
2022/06/10 04:23:25;;;;;;;12.27;5.82;;;;;;;;;;5071443;28;20070;-66
2022/06/10 04:25:50;;;;;;;12.80;6.30;;;;;;;;;;5069337;28;20434;-65
2022/06/10 04:28:16;;;;;;;13.10;5.60;;;;;;;;;;5069568;28;20298;-65
2022/06/10 04:30:42;;;;;;;16.70;5.70;;;;;;;;;;5070128;28;20321;-66
2022/06/10 04:33:08;;;;;;;16.58;5.85;;;;;;;;;;5070410;28;20032;-65
2022/06/10 04:35:37;;;;;;;12.15;5.45;;;;;;;;;;5070233;28;20377;-65
2022/06/10 04:38:02;;;;;;;5.47;4.35;;;;;;;;;;5053837;28;20020;-65
2022/06/10 04:40:29;;;;;;;12.50;5.03;;;;;;;;;;5069320;28;20027;-66
2022/06/10 04:42:54;;;;;;;13.82;6.57;;;;;;;;;;5069886;28;20024;-65
2022/06/10 04:45:22;;;;;;;10.95;4.38;;;;;;;;;;5069843;28;20629;-66
2022/06/10 04:47:47;;;;;;;15.05;4.75;;;;;;;;;;5070414;28;20423;-65
2022/06/10 04:50:14;;;;;;;9.18;4.55;;;;;;;;;;5066176;28;20023;-65
2022/06/10 04:52:39;;;;;;;10.27;4.45;;;;;;;;;;5070290;28;20107;-65
2022/06/10 04:55:05;;;;;;;12.20;5.90;;;;;;;;;;5067707;28;20123;-65
2022/06/10 04:57:30;;;;;;;12.90;4.65;;;;;;;;;;5069033;28;20012;-65
2022/06/10 04:59:55;;;;;;;10.38;4.10;;;;;;;;;;5066122;28;20019;-66
2022/06/10 05:02:21;;;;;;;7.30;4.75;;;;;;;;;;5064111;28;20075;-65
2022/06/10 05:04:46;;;;;;;16.73;5.18;;;;;;;;;;5071324;28;20012;-65
2022/06/10 05:07:12;;;;;;;10.27;3.38;;;;;;;;;;5070080;28;20377;-65
2022/06/10 05:09:37;;;;;;;6.87;4.47;;;;;;;;;;5069081;28;20020;-65
2022/06/10 05:12:02;;;;;;;7.40;3.03;;;;;;;;;;5064811;28;20637;-66
2022/06/10 05:14:28;;;;;;;6.95;3.65;;;;;;;;;;5069405;28;20017;-65
2022/06/10 05:16:53;;;;;;;6.77;3.37;;;;;;;;;;5067293;28;20024;-65
2022/06/10 05:19:18;;;;;;;14.13;4.60;;;;;;;;;;5068579;28;20324;-64
2022/06/10 05:21:44;;;;;;;8.90;3.08;;;;;;;;;;5068696;28;20306;-65
2022/06/10 05:24:09;;;;;;;12.50;3.75;;;;;;;;;;5070821;28;20102;-64
2022/06/10 05:26:34;;;;;;;18.47;4.07;;;;;;;;;;5064997;28;20119;-66
2022/06/10 05:29:00;;;;;;;7.47;4.22;;;;;;;;;;5067298;28;20667;-65
2022/06/10 05:31:25;;;;;;;6.35;3.70;;;;;;;;;;5069215;28;20408;-65
2022/06/10 05:36:34;;;;;;;9.80;3.28;;;;;;;;;;5066482;28;20024;-65
2022/06/10 05:38:59;;;;;;;11.37;3.33;;;;;;;;;;5065904;28;20020;-65
2022/06/10 05:44:09;;;;;;;2.92;2.17;;;;;;;;;;5068308;28;20468;-65
2022/06/10 05:46:35;;;;;;;9.90;4.05;;;;;;;;;;5066349;28;20461;-65
2022/06/10 05:49:00;;;;;;;10.18;4.10;;;;;;;;;;5068784;28;20017;-66
2022/06/10 05:51:25;;;;;;;9.02;3.30;;;;;;;;;;5067120;28;20433;-65
2022/06/10 05:53:50;;;;;;;12.13;3.70;;;;;;;;;;5063504;28;20070;-65
2022/06/10 05:56:16;;;;;;;7.45;4.00;;;;;;;;;;5066498;28;20262;-65
2022/06/10 05:58:41;;;;;;;6.07;3.30;;;;;;;;;;5067320;28;20046;-65
2022/06/10 06:01:07;;;;;;;5.93;3.40;;;;;;;;;;5065228;28;20032;-65
2022/06/10 06:03:32;;;;;;;9.02;3.22;;;;;;;;;;5065574;28;20336;-65
2022/06/10 06:05:57;;;;;;;6.60;3.23;;;;;;;;;;5066350;28;20024;-65
2022/06/10 06:08:22;;;;;;;11.68;3.30;;;;;;;;;;5065930;28;20447;-65
2022/06/10 06:10:47;;;;;;;10.53;3.00;;;;;;;;;;5066159;28;20556;-65
2022/06/10 06:13:14;;;;;;;9.32;3.35;;;;;;;;;;5059784;28;20298;-65
2022/06/10 06:15:39;;;;;;;12.53;4.10;;;;;;;;;;5062710;28;20107;-66
2022/06/10 06:18:05;;;;;;;14.98;3.00;;;;;;;;;;5066138;28;20309;-65
2022/06/10 06:20:30;;;;;;;9.57;2.92;;;;;;;;;;5067276;28;20024;-66
2022/06/10 06:22:55;;;;;;;6.82;2.88;;;;;;;;;;5065549;28;20028;-65
2022/06/10 06:25:20;;;;;;;14.82;3.58;;;;;;;;;;5064413;28;20021;-66
2022/06/10 06:27:48;;;;;;;8.07;3.10;;;;;;;;;;5067320;28;20032;-66
2022/06/10 06:30:15;;;;;;;19.85;4.97;;;;;;;;;;5067219;28;20289;-66
2022/06/10 06:32:41;;;;;;;10.20;3.35;;;;;;;;;;5069411;28;20020;-66
2022/06/10 06:35:07;;;;;;;9.15;2.95;;;;;;;;;;5067879;28;20028;-65
2022/06/10 06:37:32;;;;;;;5.65;2.58;;;;;;;;;;5069187;28;20372;-65
2022/06/10 06:39:57;;;;;;;7.17;3.43;;;;;;;;;;5063618;28;20024;-65
2022/06/10 06:42:22;;;;;;;7.53;2.67;;;;;;;;;;5066486;28;20667;-65
2022/06/10 06:44:47;;;;;;;11.83;3.40;;;;;;;;;;5069926;28;20278;-65
2022/06/10 06:47:13;;;;;;;8.00;3.00;;;;;;;;;;5090976;22;20334;-71
2022/06/10 06:49:38;;;;;;;10.30;2.67;;;;;;;;;;5087110;28;20286;-70
2022/06/10 06:52:05;;;;;;;13.43;2.97;;;;;;;;;;5081643;28;20032;-70
2022/06/10 06:54:31;;;;;;;6.97;2.70;;;;;;;;;;5079847;28;20032;-70
2022/06/10 06:56:57;;;;;;;9.50;3.22;;;;;;;;;;5077383;28;20024;-70
2022/06/10 06:59:22;;;;;;;7.85;3.00;;;;;;;;;;5060193;28;20027;-70
2022/06/10 07:01:47;;;;;;;9.13;3.35;;;;;;;;;;5062342;28;20017;-70
2022/06/10 07:04:12;;;;;;;15.83;3.10;;;;;;;;;;5064464;28;20021;-70
2022/06/10 07:06:38;;;;;;;8.82;3.38;;;;;;;;;;5065304;28;20607;-70
2022/06/10 07:09:04;;;;;;;7.18;2.55;;;;;;;;;;5057951;28;20119;-70
2022/06/10 07:11:31;;;;;;;14.13;3.88;;;;;;;;;;5058814;28;20104;-70
2022/06/10 07:13:56;;;;;;;8.90;1.55;;;;;;;;;;5055204;28;20459;-69
2022/06/10 07:16:21;;;;;;;6.80;2.70;;;;;;;;;;5043373;28;20021;-69
2022/06/10 07:18:46;;;;;;;8.83;3.20;;;;;;;;;;5059242;28;20567;-69
2022/06/10 07:21:11;;;;;;;16.00;3.37;;;;;;;;;;5060218;28;20279;-69
2022/06/10 07:23:37;;;;;;;10.37;2.80;;;;;;;;;;5058988;28;20623;-69
2022/06/10 07:26:03;;;;;;;11.15;2.65;;;;;;;;;;5065020;28;20275;-69
2022/06/10 07:28:29;;;;;;;16.63;3.40;;;;;;;;;;5059778;28;20025;-69
2022/06/10 07:30:54;;;;;;;8.30;2.90;;;;;;;;;;5059800;28;20042;-69
2022/06/10 07:33:19;;;;;;;8.60;2.97;;;;;;;;;;5057673;28;20005;-70
2022/06/10 07:35:45;;;;;;;8.30;2.70;;;;;;;;;;5069632;28;20572;-69
2022/06/10 07:38:11;;;;;;;6.22;2.70;;;;;;;;;;5063560;28;20024;-70
2022/06/10 07:43:22;;;;;;;7.20;2.42;;;;;;;;;;5065237;28;20059;-69
2022/06/10 07:45:47;;;;;;;11.32;3.50;;;;;;;;;;5059885;28;20059;-70
2022/06/10 07:48:13;;;;;;;13.68;3.03;;;;;;;;;;5054740;28;20027;-69
2022/06/10 07:50:39;;;;;;;8.90;2.88;;;;;;;;;;5062365;28;20031;-69
2022/06/10 07:53:04;;;;;;;13.68;3.33;;;;;;;;;;5059962;28;20125;-69
2022/06/10 07:55:29;;;;;;;11.30;2.70;;;;;;;;;;5061293;28;20020;-69
2022/06/10 07:57:55;;;;;;;17.52;2.67;;;;;;;;;;5063753;28;20058;-69
2022/06/10 08:00:20;;;;;;;14.63;3.35;;;;;;;;;;5064043;28;20480;-69
2022/06/10 08:02:46;;;;;;;12.38;4.05;;;;;;;;;;5063130;28;20397;-69
2022/06/10 08:05:16;;;;;;;11.70;2.60;;;;;;;;;;5062382;28;20033;-69
2022/06/10 08:07:42;;;;;;;10.88;2.38;;;;;;;;;;5060424;28;20063;-69
2022/06/10 08:10:15;;;;;;;11.10;2.35;;;;;;;;;;5067740;28;20052;-69
2022/06/10 08:12:40;;;;;;;11.88;3.88;;;;;;;;;;5060102;28;20029;-69
2022/06/10 08:15:06;;;;;;;7.43;2.53;;;;;;;;;;5056873;28;20472;-69
2022/06/10 08:17:31;;;;;;;8.50;2.30;;;;;;;;;;5059396;28;20342;-69
2022/06/10 08:19:56;;;;;;;10.60;2.47;;;;;;;;;;5054219;28;20453;-69
2022/06/10 08:22:35;;;;;;;6.70;2.93;;;;;;;;;;5058492;28;20267;-69
2022/06/10 08:25:01;;;;;;;12.93;2.72;;;;;;;;;;5061432;28;20282;-69
2022/06/10 08:27:27;;;;;;;12.48;2.90;;;;;;;;;;5058345;28;20492;-69
2022/06/10 08:29:53;;;;;;;3.58;1.73;;;;;;;;;;5063000;28;20027;-69
2022/06/10 08:32:18;;;;;;;26.48;2.63;;;;;;;;;;5068479;28;20035;-69
2022/06/10 08:34:44;;;;;;;8.40;2.33;;;;;;;;;;5062588;28;20020;-69
2022/06/10 08:37:09;;;;;;;8.43;2.20;;;;;;;;;;5060647;28;20098;-69
2022/06/10 08:39:35;;;;;;;11.68;2.15;;;;;;;;;;5066262;28;20310;-69
2022/06/10 08:42:06;;;;;;;10.32;2.28;;;;;;;;;;5062911;28;20027;-69
2022/06/10 08:44:39;;;;;;;13.93;2.20;;;;;;;;;;5063962;28;20016;-69
2022/06/10 08:47:11;;;;;;;17.55;1.98;;;;;;;;;;5059477;28;20385;-69
2022/06/10 08:49:56;;;;;;;13.13;2.30;;;;;;;;;;5062433;28;20488;-69
2022/06/10 08:52:44;;;;;;;11.95;3.30;;;;;;;;;;5061838;28;20487;-69
2022/06/10 08:55:23;;;;;;;8.32;2.35;;;;;;;;;;5050714;28;20116;-69
2022/06/10 08:57:48;;;;;;;16.15;3.05;;;;;;;;;;5045608;28;20500;-69
2022/06/10 09:00:18;;;;;;;7.63;2.38;;;;;;;;;;5056873;28;20043;-69
2022/06/10 09:03:02;;;;;;;5.65;1.88;;;;;;;;;;5059196;28;20012;-70
2022/06/10 09:05:29;;;;;;;10.40;2.17;;;;;;;;;;5065549;28;20020;-69
2022/06/10 09:08:00;;;;;;;11.45;2.13;;;;;;;;;;5045131;28;20017;-69
2022/06/10 09:10:25;;;;;;;10.40;2.70;;;;;;;;;;5063718;28;20448;-69
2022/06/10 09:12:50;;;;;;;12.68;2.28;;;;;;;;;;5060343;28;20153;-69
2022/06/10 09:15:17;;;;;;;8.05;2.00;;;;;;;;;;5056227;28;20025;-69
2022/06/10 09:17:47;;;;;;;10.73;1.92;;;;;;;;;;5060133;28;20028;-68
2022/06/10 09:20:20;;;;;;;8.18;1.77;;;;;;;;;;5057189;28;20017;-68
2022/06/10 09:22:51;;;;;;;5.18;1.52;;;;;;;;;;5061614;28;20074;-69
2022/06/10 09:25:26;;;;;;;10.38;1.98;;;;;;;;;;5056218;28;20047;-70
2022/06/10 09:27:55;;;;;;;10.23;1.73;;;;;;;;;;5062945;28;20021;-68
2022/06/10 09:30:21;;;;;;;16.05;1.60;;;;;;;;;;5061562;28;20021;-68
2022/06/10 09:32:47;;;;;;;9.02;2.45;;;;;;;;;;5061165;28;20429;-68
2022/06/10 09:35:19;;;;;;;7.47;1.85;;;;;;;;;;5057550;28;20025;-72
2022/06/10 09:37:54;;;;;;;9.15;1.40;;;;;;;;;;5062630;28;20017;-69
2022/06/10 09:40:37;;;;;;;9.18;1.88;;;;;;;;;;5061719;28;20111;-69
2022/06/10 09:43:19;;;;;;;5.72;1.60;;;;;;;;;;5061013;28;20647;-71
2022/06/10 09:45:50;;;;;;;12.88;2.20;;;;;;;;;;5061570;28;20408;-70
2022/06/10 09:48:19;;;;;;;15.80;1.50;;;;;;;;;;5067762;28;20028;-70
2022/06/10 09:50:50;;;;;;;7.35;1.50;;;;;;;;;;5058040;28;20024;-68
2022/06/10 09:53:33;;;;;;;8.85;1.75;;;;;;;;;;5062902;28;20108;-69
2022/06/10 09:55:58;;;;;;;6.65;1.27;;;;;;;;;;5053791;28;20405;-68
2022/06/10 09:58:32;;;;;;;13.65;3.00;;;;;;;;;;5059412;28;20046;-69
2022/06/10 10:01:21;;;;;;;6.93;1.95;;;;;;;;;;5063668;28;20051;-68
2022/06/10 10:04:10;;;;;;;6.55;2.10;;;;;;;;;;5062731;28;20027;-69
2022/06/10 10:06:38;;;;;;;8.32;1.83;;;;;;;;;;5055834;28;20503;-70
2022/06/10 10:09:41;;;;;;;15.43;2.08;;;;;;;;;;5062472;28;20397;-69
2022/06/10 10:12:13;;;;;;;12.90;3.88;;;;;;;;;;4980214;28;20022;-70
2022/06/10 10:14:54;;;;;;;19.73;3.17;;;;;;;;;;4983159;28;20022;-68
2022/06/10 10:17:38;;;;;;;15.05;2.28;;;;;;;;;;5027989;28;20109;-70
2022/06/10 10:20:03;;;;;;;12.73;2.28;;;;;;;;;;5064079;28;20020;-68
2022/06/10 10:22:49;;;;;;;11.82;2.60;;;;;;;;;;5056881;28;20028;-69
2022/06/10 10:25:16;;;;;;;13.50;1.73;;;;;;;;;;5056348;28;20361;-69
2022/06/10 10:27:43;;;;;;;8.23;1.75;;;;;;;;;;5061879;28;20024;-71
2022/06/10 10:30:27;;;;;;;10.27;1.92;;;;;;;;;;5057931;28;20021;-70
2022/06/10 10:33:01;;;;;;;6.30;2.38;;;;;;;;;;5058354;28;20032;-69
2022/06/10 10:35:30;;;;;;;9.48;2.55;;;;;;;;;;5055954;28;20017;-71
2022/06/10 10:38:00;;;;;;;8.75;2.03;;;;;;;;;;5058038;28;20043;-70
2022/06/10 10:40:34;;;;;;;10.18;1.80;;;;;;;;;;5060943;28;20103;-69
2022/06/10 10:43:03;;;;;;;9.63;1.60;;;;;;;;;;5062724;28;20043;-69
2022/06/10 10:45:31;;;;;;;9.63;2.03;;;;;;;;;;5058798;28;20020;-70
2022/06/10 10:47:58;;;;;;;6.97;1.67;;;;;;;;;;5042920;28;20028;-70
2022/06/10 10:50:31;;;;;;;18.52;2.33;;;;;;;;;;5060003;28;20040;-69
2022/06/10 10:52:57;;;;;;;14.45;1.77;;;;;;;;;;5060139;28;20393;-69
2022/06/10 10:55:30;;;;;;;9.80;1.45;;;;;;;;;;5068813;28;20380;-69
2022/06/10 10:57:58;;;;;;;7.90;1.40;;;;;;;;;;5063052;28;20017;-69
2022/06/10 11:00:36;;;;;;;9.90;1.50;;;;;;;;;;5058243;28;20044;-69
2022/06/10 11:03:02;;;;;;;12.02;2.47;;;;;;;;;;5061532;28;20099;-71
2022/06/10 11:05:31;;;;;;;5.28;1.40;;;;;;;;;;5053143;28;20414;-69
2022/06/10 11:08:06;;;;;;;13.05;1.20;;;;;;;;;;5059069;28;20058;-69
2022/06/10 11:10:32;;;;;;;10.30;1.38;;;;;;;;;;5054019;28;20029;-71
2022/06/10 11:13:01;;;;;;;4.65;1.20;;;;;;;;;;5059402;28;20025;-69
2022/06/10 11:15:28;;;;;;;3.67;1.13;;;;;;;;;;5063049;28;20089;-69
2022/06/10 11:17:53;;;;;;;5.15;1.05;;;;;;;;;;5054784;28;20017;-69
2022/06/10 11:20:36;;;;;;;4.63;1.65;;;;;;;;;;5058205;28;20013;-69
2022/06/10 11:23:20;;;;;;;8.20;1.50;;;;;;;;;;5059781;28;20012;-69
2022/06/10 11:26:00;;;;;;;6.38;1.33;;;;;;;;;;5054033;28;20024;-71
2022/06/10 11:28:25;;;;;;;7.18;1.13;;;;;;;;;;5059789;28;20028;-69
2022/06/10 11:30:51;;;;;;;5.27;1.23;;;;;;;;;;5059650;28;20086;-71
2022/06/10 11:33:19;;;;;;;6.28;1.17;;;;;;;;;;5058320;28;20025;-71
2022/06/10 11:36:07;;;;;;;7.68;1.30;;;;;;;;;;5059986;28;20023;-70
2022/06/10 11:38:35;;;;;;;3.13;0.80;;;;;;;;;;5047538;28;20064;-70
2022/06/10 11:41:13;;;;;;;6.10;0.95;;;;;;;;;;5060031;28;20031;-70
2022/06/10 11:43:41;;;;;;;7.88;1.08;;;;;;;;;;5055434;28;20017;-70
2022/06/10 11:46:13;;;;;;;6.63;1.23;;;;;;;;;;5052319;28;20035;-70
2022/06/10 11:48:42;;;;;;;7.88;1.30;;;;;;;;;;5052937;28;20216;-70
2022/06/10 11:51:12;;;;;;;10.05;1.17;;;;;;;;;;5057047;28;20029;-70
2022/06/10 11:53:59;;;;;;;4.75;0.80;;;;;;;;;;5060695;28;20032;-70
2022/06/10 11:59:44;;;;;;;2.65;0.50;;;;;;;;;;5056912;28;20579;-71
2022/06/10 12:02:11;;;;;;;5.65;1.00;;;;;;;;;;5058362;28;20025;-70
2022/06/10 12:04:41;;;;;;;2.97;0.90;;;;;;;;;;5071902;28;20020;-70
2022/06/10 12:07:08;;;;;;;12.57;1.20;;;;;;;;;;5061838;28;20112;-70
2022/06/10 12:09:45;;;;;;;5.97;0.68;;;;;;;;;;5066724;28;20032;-70
2022/06/10 12:12:16;;;;;;;2.65;0.65;;;;;;;;;;5061662;28;20027;-70
2022/06/10 12:14:44;;;;;;;4.45;0.95;;;;;;;;;;5058186;28;20164;-70
2022/06/10 12:17:09;;;;;;;6.32;1.10;;;;;;;;;;5061037;28;20029;-70
2022/06/10 12:19:39;;;;;;;5.57;0.80;;;;;;;;;;5064554;28;20024;-70
2022/06/10 12:22:04;;;;;;;3.65;0.85;;;;;;;;;;5061154;28;20724;-70
2022/06/10 12:24:30;;;;;;;5.03;1.17;;;;;;;;;;5062665;28;20116;-70
2022/06/10 12:27:03;;;;;;;2.75;0.70;;;;;;;;;;5062544;28;20027;-70
2022/06/10 12:29:28;;;;;;;2.97;0.80;;;;;;;;;;5063095;28;20035;-70
2022/06/10 12:31:53;;;;;;;7.03;1.00;;;;;;;;;;5062829;28;20021;-70
2022/06/10 12:34:23;;;;;;;4.10;0.80;;;;;;;;;;5061905;28;20029;-70
2022/06/10 12:36:53;;;;;;;5.60;1.52;;;;;;;;;;5060043;28;20278;-70
2022/06/10 12:39:21;;;;;;;6.65;0.80;;;;;;;;;;5062282;28;20032;-70
2022/06/10 12:41:49;;;;;;;3.65;1.10;;;;;;;;;;5047047;28;20397;-70
2022/06/10 12:44:23;;;;;;;1.42;0.43;;;;;;;;;;5060855;28;20021;-70
2022/06/10 12:46:58;;;;;;;8.45;1.55;;;;;;;;;;5071870;22;21636;-89
2022/06/10 12:49:55;;;;;;;9.13;1.35;;;;;;;;;;5016117;28;20029;-92
2022/06/10 12:52:21;;;;;;;4.53;1.08;;;;;;;;;;5017826;28;20487;-91
2022/06/10 12:54:46;;;;;;;3.50;0.93;;;;;;;;;;5003054;28;20017;-91
2022/06/10 12:57:32;;;;;;;2.35;0.60;;;;;;;;;;5026860;28;20079;-89
2022/06/10 13:00:15;;;;;;;1.60;0.85;;;;;;;;;;5001751;28;20057;-91
2022/06/10 13:02:48;;;;;;;4.45;0.93;;;;;;;;;;5019301;28;20101;-89
2022/06/10 13:05:21;;;;;;;5.15;1.30;;;;;;;;;;5023534;28;20025;-92
2022/06/10 13:07:47;;;;;;;12.45;1.30;;;;;;;;;;5021675;28;20036;-91
2022/06/10 13:10:28;;;;;;;5.82;1.00;;;;;;;;;;5005170;28;20474;-90
2022/06/10 13:12:56;;;;;;;3.90;0.90;;;;;;;;;;4996538;28;20084;-88
2022/06/10 13:15:26;;;;;;;3.28;1.13;;;;;;;;;;5026782;28;20493;-92
2022/06/10 13:18:10;;;;;;;7.63;1.00;;;;;;;;;;5020377;28;20124;-91
2022/06/10 13:20:39;;;;;;;6.45;1.00;;;;;;;;;;5021536;28;20113;-91
2022/06/10 13:23:09;;;;;;;8.45;1.58;;;;;;;;;;4994777;28;20042;-92
2022/06/10 13:25:34;;;;;;;;;;;;;;;;;;5018531;28;20079;-92
2022/06/10 13:28:05;;;;;;;3.77;1.10;;;;;;;;;;5002685;28;19913;-90
2022/06/10 13:30:32;;;;;;;5.18;0.68;;;;;;;;;;5007072;28;20346;-90
2022/06/10 13:33:00;;;;;;;11.95;1.23;;;;;;;;;;5005258;28;20112;-89
2022/06/10 13:35:27;;;;;;;4.88;1.10;;;;;;;;;;5005253;28;20392;-89
2022/06/10 13:37:55;;;;;;;6.05;0.90;;;;;;;;;;5002196;28;20024;-92
2022/06/10 13:40:24;;;;;;;6.13;1.02;;;;;;;;;;5016923;28;20401;-89
2022/06/10 13:42:54;;;;;;;3.22;0.88;;;;;;;;;;5003321;28;20117;-92
2022/06/10 13:45:19;;;;;;;;;;;;;;;;;;5001937;28;20014;-91
2022/06/10 13:47:53;;;;;;;7.03;0.82;;;;;;;;;;5016180;28;19924;-89
2022/06/10 13:53:00;;;;;;;5.13;1.00;;;;;;;;;;5019966;28;20360;-89
2022/06/10 13:55:28;;;;;;;4.75;0.70;;;;;;;;;;5001436;28;20022;-91
2022/06/10 13:57:55;;;;;;;8.93;1.52;;;;;;;;;;5002878;28;20025;-91
2022/06/10 14:00:22;;;;;;;5.10;1.27;;;;;;;;;;5006494;28;20018;-89
2022/06/10 14:02:48;;;;;;;5.60;0.80;;;;;;;;;;5001161;28;20093;-90
2022/06/10 14:05:39;;;;;;;7.95;1.20;;;;;;;;;;5014978;28;20239;-93
2022/06/10 14:08:05;;;;;;;1.05;0.47;;;;;;;;;;4992672;28;20346;-90
2022/06/10 14:10:38;;;;;;;5.15;1.40;;;;;;;;;;5003942;28;20017;-92
2022/06/10 14:13:05;;;;;;;3.88;1.00;;;;;;;;;;5015109;28;20025;-90
2022/06/10 14:15:37;;;;;;;3.35;0.88;;;;;;;;;;5001801;28;20035;-93
2022/06/10 14:18:24;;;;;;;;;;;;;;;;;;;;;
2022/06/10 14:20:53;;;;;;;2.50;0.75;;;;;;;;;;5020600;28;20033;-91
2022/06/10 14:23:29;;;;;;;3.28;1.20;;;;;;;;;;5002789;28;20106;-90
2022/06/10 14:26:13;;;;;;;7.05;1.48;;;;;;;;;;5023317;28;20026;-91
2022/06/10 14:28:40;;;;;;;5.63;1.25;;;;;;;;;;5020969;28;20485;-89
2022/06/10 14:31:13;;;;;;;6.90;1.35;;;;;;;;;;5005343;28;20026;-90
2022/06/10 14:33:46;;;;;;;7.13;1.33;;;;;;;;;;5018208;28;20017;-93
2022/06/10 14:36:18;;;;;;;7.05;1.40;;;;;;;;;;4994255;28;20042;-89
2022/06/10 14:39:00;;;;;;;7.47;1.30;;;;;;;;;;5019633;28;20025;-90
2022/06/10 14:41:25;;;;;;;4.57;0.98;;;;;;;;;;5025279;28;20093;-90
2022/06/10 14:43:55;;;;;;;6.13;1.43;;;;;;;;;;5004459;28;20352;-89
2022/06/10 14:46:22;;;;;;;4.32;0.70;;;;;;;;;;5017084;28;20283;-88
2022/06/10 14:48:49;;;;;;;7.20;0.93;;;;;;;;;;5018575;28;20110;-90
2022/06/10 14:51:28;;;;;;;4.18;1.10;;;;;;;;;;5003283;28;20021;-89
2022/06/10 14:54:07;;;;;;;6.30;1.00;;;;;;;;;;5016783;28;20017;-90
2022/06/10 14:56:33;;;;;;;9.05;1.35;;;;;;;;;;4998260;28;20018;-90
2022/06/10 14:58:58;;;;;;;7.13;1.00;;;;;;;;;;5018435;28;20025;-90
2022/06/10 15:01:26;;;;;;;4.35;1.02;;;;;;;;;;5010206;28;20559;-88
2022/06/10 15:03:51;;;;;;;12.10;1.67;;;;;;;;;;5018371;28;20080;-90
2022/06/10 15:06:30;;;;;;;4.80;1.30;;;;;;;;;;5019317;28;20123;-90
2022/06/10 15:08:58;;;;;;;5.75;1.17;;;;;;;;;;5001368;28;20022;-89
2022/06/10 15:11:27;;;;;;;1.02;0.60;;;;;;;;;;5018730;28;20017;-90